Time;durP1;ratioP1;P1;durP2;ratioP2;P2;SDS_P1;SDS_P2;PMS_P1;PMS_P2;Temp;Humidity;BMP_temperature;BMP_pressure;BME280_temperature;BME280_humidity;BME280_pressure;Samples;Min_cycle;Max_cycle;Signal;HPM_P1;HPM_P2
2023/01/02 00:01:23;;;;;;;10.03;7.43;;;8.90;99.90;;;;;;5014434;28;20207;-66
2023/01/02 00:03:49;;;;;;;10.23;7.30;;;8.90;99.90;;;;;;5014806;28;20213;-65
2023/01/02 00:06:17;;;;;;;12.00;8.00;;;9.00;99.90;;;;;;5013998;28;20218;-65
2023/01/02 00:08:44;;;;;;;12.27;8.30;;;8.90;99.90;;;;;;5014193;28;20234;-66
2023/01/02 00:11:10;;;;;;;10.33;6.90;;;9.00;99.90;;;;;;5014112;28;20211;-66
2023/01/02 00:13:38;;;;;;;9.13;6.90;;;8.90;99.90;;;;;;5014077;28;20203;-64
2023/01/02 00:16:06;;;;;;;9.47;6.30;;;8.90;99.90;;;;;;5012684;28;20217;-66
2023/01/02 00:18:33;;;;;;;21.20;11.73;;;8.90;99.90;;;;;;5014397;28;20218;-65
2023/01/02 00:21:02;;;;;;;11.70;8.30;;;8.90;99.90;;;;;;5014058;28;20202;-65
2023/01/02 00:23:30;;;;;;;11.77;7.97;;;8.90;99.90;;;;;;5013960;28;20555;-65
2023/01/02 00:25:56;;;;;;;11.83;7.17;;;8.90;99.90;;;;;;5014315;28;20261;-64
2023/01/02 00:28:23;;;;;;;9.83;7.27;;;8.90;99.90;;;;;;5014337;28;20211;-65
2023/01/02 00:30:51;;;;;;;9.70;6.97;;;8.90;99.90;;;;;;5014572;28;20565;-65
2023/01/02 00:33:18;;;;;;;10.30;7.47;;;8.90;99.90;;;;;;5017162;28;20198;-65
2023/01/02 00:35:45;;;;;;;9.70;7.33;;;8.90;99.90;;;;;;5013760;28;20250;-66
2023/01/02 00:38:12;;;;;;;10.97;7.20;;;8.90;99.90;;;;;;5014017;28;20207;-65
2023/01/02 00:40:38;;;;;;;9.43;6.93;;;8.80;99.90;;;;;;5013710;28;20207;-65
2023/01/02 00:43:06;;;;;;;8.77;6.60;;;8.80;99.90;;;;;;5013991;28;20234;-64
2023/01/02 00:45:32;;;;;;;10.73;6.63;;;8.80;99.90;;;;;;5013871;28;20570;-65
2023/01/02 00:48:00;;;;;;;10.40;6.80;;;8.80;99.90;;;;;;5013960;28;20671;-65
2023/01/02 00:50:27;;;;;;;9.93;6.87;;;8.80;99.90;;;;;;5011941;28;20673;-64
2023/01/02 01:04:38;;;;;;;8.30;6.17;;;8.80;99.90;;;;;;5066951;28;20625;-67
2023/01/02 01:07:05;;;;;;;8.27;5.90;;;9.00;99.90;;;;;;5067924;28;20207;-66
2023/01/02 01:09:31;;;;;;;8.57;6.20;;;9.00;99.90;;;;;;5068569;28;20193;-66
2023/01/02 01:11:58;;;;;;;7.70;6.00;;;9.00;99.90;;;;;;5067530;28;20566;-67
2023/01/02 01:14:25;;;;;;;9.13;6.50;;;9.00;99.90;;;;;;5065447;28;20646;-67
2023/01/02 01:16:52;;;;;;;9.70;6.63;;;8.90;99.90;;;;;;5064686;28;20193;-67
2023/01/02 01:19:19;;;;;;;9.43;6.40;;;8.90;99.90;;;;;;5067256;28;20193;-69
2023/01/02 01:21:47;;;;;;;8.13;6.27;;;8.90;99.90;;;;;;5067364;28;20296;-67
2023/01/02 01:24:15;;;;;;;9.10;6.37;;;8.90;99.90;;;;;;5065851;28;20205;-68
2023/01/02 01:26:41;;;;;;;9.40;6.70;;;8.80;99.90;;;;;;5063899;28;20201;-68
2023/01/02 01:29:08;;;;;;;9.50;6.80;;;8.80;99.90;;;;;;5063394;28;20201;-67
2023/01/02 01:31:35;;;;;;;8.37;6.27;;;8.80;99.90;;;;;;5066164;28;20201;-67
2023/01/02 01:34:02;;;;;;;8.37;6.50;;;8.80;99.90;;;;;;5063852;28;20224;-67
2023/01/02 01:36:28;;;;;;;8.63;6.60;;;8.80;99.90;;;;;;5066201;28;20205;-67
2023/01/02 01:38:56;;;;;;;11.20;7.20;;;8.80;99.90;;;;;;5066585;28;20197;-68
2023/01/02 01:41:25;;;;;;;11.17;6.77;;;8.80;99.90;;;;;;5066900;28;20213;-67
2023/01/02 01:43:53;;;;;;;11.70;6.87;;;8.70;99.90;;;;;;5062509;28;20193;-68
2023/01/02 01:46:25;;;;;;;10.93;7.30;;;8.70;99.90;;;;;;5063639;28;20208;-68
2023/01/02 01:48:57;;;;;;;9.00;6.63;;;8.80;99.90;;;;;;5064403;28;20201;-67
2023/01/02 01:51:26;;;;;;;12.97;7.50;;;8.70;99.90;;;;;;5067706;28;20197;-66
2023/01/02 01:53:57;;;;;;;10.63;7.10;;;8.70;99.90;;;;;;5064789;28;20223;-67
2023/01/02 01:56:26;;;;;;;10.87;6.90;;;8.60;99.90;;;;;;5067520;28;20193;-68
2023/01/02 01:58:53;;;;;;;9.43;6.87;;;8.60;99.90;;;;;;5062129;28;20201;-68
2023/01/02 02:01:20;;;;;;;10.57;6.97;;;8.60;99.90;;;;;;5067115;28;20650;-68
2023/01/02 02:03:48;;;;;;;11.93;6.93;;;8.60;99.90;;;;;;5053433;28;20233;-68
2023/01/02 02:06:17;;;;;;;10.67;7.43;;;8.60;99.90;;;;;;5033437;28;20214;-66
2023/01/02 02:08:51;;;;;;;9.50;7.27;;;8.60;99.90;;;;;;5034320;28;20202;-69
2023/01/02 02:11:18;;;;;;;9.77;6.87;;;8.50;99.90;;;;;;5034189;28;20197;-68
2023/01/02 02:13:47;;;;;;;10.37;7.20;;;8.50;99.90;;;;;;5034551;28;20602;-67
2023/01/02 02:16:31;;;;;;;12.13;7.60;;;8.50;99.90;;;;;;5034102;28;20206;-68
2023/01/02 02:19:33;;;;;;;8.93;7.17;;;8.50;99.90;;;;;;5043191;28;20208;-67
2023/01/02 02:22:23;;;;;;;12.03;7.60;;;8.50;99.90;;;;;;5051024;28;20219;-69
2023/01/02 02:25:19;;;;;;;9.63;7.40;;;8.40;99.90;;;;;;5054356;28;20546;-68
2023/01/02 02:28:10;;;;;;;9.33;7.63;;;8.40;99.90;;;;;;5053477;28;20205;-68
2023/01/02 02:30:43;;;;;;;9.80;7.20;;;8.50;99.90;;;;;;5034317;28;20198;-67
2023/01/02 02:33:29;;;;;;;10.50;7.60;;;8.40;99.90;;;;;;5033951;28;20214;-68
2023/01/02 02:36:04;;;;;;;9.53;7.50;;;8.40;99.90;;;;;;5041659;28;20185;-67
2023/01/02 02:38:46;;;;;;;10.60;7.30;;;8.40;99.90;;;;;;5047332;28;20206;-67
2023/01/02 02:41:25;;;;;;;9.13;6.93;;;8.30;99.90;;;;;;5038333;28;20273;-67
2023/01/02 02:44:07;;;;;;;10.10;7.00;;;8.30;99.90;;;;;;5041917;28;20280;-66
2023/01/02 02:46:42;;;;;;;9.77;7.17;;;8.30;99.90;;;;;;5033864;28;20217;-67
2023/01/02 02:49:18;;;;;;;9.30;6.90;;;8.30;99.90;;;;;;5032504;28;20229;-66
2023/01/02 02:51:49;;;;;;;11.07;7.57;;;8.30;99.90;;;;;;5033882;28;20216;-68
2023/01/02 02:54:21;;;;;;;9.87;7.27;;;8.30;99.90;;;;;;5031966;28;20217;-68
2023/01/02 02:56:50;;;;;;;9.50;7.07;;;8.30;99.90;;;;;;5040389;28;20212;-69
2023/01/02 02:59:17;;;;;;;10.33;6.90;;;8.30;99.90;;;;;;5041594;28;20217;-68
2023/01/02 03:01:45;;;;;;;10.67;7.97;;;8.30;99.90;;;;;;5044069;28;20198;-68
2023/01/02 03:04:17;;;;;;;9.73;6.80;;;8.40;99.90;;;;;;5041725;28;20237;-68
2023/01/02 03:06:56;;;;;;;9.60;7.33;;;8.40;99.90;;;;;;5043238;28;20606;-66
2023/01/02 03:09:38;;;;;;;9.33;6.53;;;8.40;99.90;;;;;;5042980;28;20231;-68
2023/01/02 03:12:18;;;;;;;10.73;7.63;;;8.30;99.90;;;;;;5051239;28;20651;-68
2023/01/02 03:14:54;;;;;;;11.37;6.93;;;8.30;99.90;;;;;;5043290;28;20217;-68
2023/01/02 03:17:30;;;;;;;10.23;6.87;;;8.30;99.90;;;;;;5030412;28;20194;-67
2023/01/02 03:20:01;;;;;;;10.67;7.10;;;8.30;99.90;;;;;;5030847;28;20194;-67
2023/01/02 03:22:34;;;;;;;10.77;7.70;;;8.30;99.90;;;;;;5031278;28;20193;-67
2023/01/02 03:25:01;;;;;;;11.23;7.07;;;8.30;99.90;;;;;;5031829;28;20198;-67
2023/01/02 03:27:33;;;;;;;11.93;7.77;;;8.40;99.90;;;;;;5033144;28;20206;-67
2023/01/02 03:30:03;;;;;;;9.17;6.90;;;8.30;99.90;;;;;;5033015;28;20195;-67
2023/01/02 03:32:34;;;;;;;11.50;7.40;;;8.30;99.90;;;;;;5032934;28;20552;-68
2023/01/02 03:35:06;;;;;;;10.33;7.30;;;8.30;99.90;;;;;;5032277;28;20562;-67
2023/01/02 03:37:35;;;;;;;10.83;7.50;;;8.30;99.90;;;;;;5033023;28;20194;-67
2023/01/02 03:40:07;;;;;;;10.03;8.33;;;8.30;99.90;;;;;;5041822;28;20205;-68
2023/01/02 03:42:38;;;;;;;13.27;9.47;;;8.40;99.90;;;;;;5040947;28;20198;-67
2023/01/02 03:45:09;;;;;;;14.43;9.43;;;8.40;99.90;;;;;;5032578;28;20731;-67
2023/01/02 03:47:42;;;;;;;14.00;9.23;;;8.40;99.90;;;;;;5032445;28;20190;-68
2023/01/02 03:50:16;;;;;;;12.47;9.07;;;8.40;99.90;;;;;;5032474;28;20187;-67
2023/01/02 03:52:43;;;;;;;14.70;9.03;;;8.40;99.90;;;;;;5032433;28;20285;-66
2023/01/02 03:55:10;;;;;;;10.63;8.00;;;8.40;99.90;;;;;;5031870;28;20210;-66
2023/01/02 03:57:51;;;;;;;10.83;7.90;;;8.40;99.90;;;;;;5036708;28;20202;-68
2023/01/02 04:00:19;;;;;;;9.43;7.77;;;8.40;99.90;;;;;;5031897;28;20201;-67
2023/01/02 04:02:54;;;;;;;12.23;8.63;;;8.40;99.90;;;;;;5031860;28;20241;-67
2023/01/02 04:05:27;;;;;;;10.50;8.00;;;8.40;99.90;;;;;;5031899;28;20201;-68
2023/01/02 04:07:59;;;;;;;13.50;8.27;;;8.30;99.90;;;;;;5031818;28;20193;-66
2023/01/02 04:10:28;;;;;;;12.87;8.50;;;8.30;99.90;;;;;;5032461;28;20286;-67
2023/01/02 04:12:58;;;;;;;10.43;8.10;;;8.30;99.90;;;;;;5032043;28;20222;-67
2023/01/02 04:15:28;;;;;;;11.63;8.50;;;8.30;99.90;;;;;;5032392;28;20210;-67
2023/01/02 04:18:01;;;;;;;10.80;8.20;;;8.30;99.90;;;;;;5031745;28;20197;-67
2023/01/02 04:20:31;;;;;;;10.80;7.83;;;8.30;99.90;;;;;;5032269;28;20555;-67
2023/01/02 04:23:02;;;;;;;10.27;7.50;;;8.20;99.90;;;;;;5031976;28;20202;-67
2023/01/02 04:25:33;;;;;;;12.70;8.80;;;8.30;99.90;;;;;;5032193;28;20202;-67
2023/01/02 04:28:04;;;;;;;14.67;9.37;;;8.20;99.90;;;;;;5031971;28;20287;-68
2023/01/02 04:30:35;;;;;;;13.93;9.27;;;8.20;99.90;;;;;;5031785;28;20199;-67
2023/01/02 04:33:07;;;;;;;13.23;9.27;;;8.20;99.90;;;;;;5031637;28;20190;-69
2023/01/02 04:35:35;;;;;;;13.93;9.03;;;8.20;99.90;;;;;;5031589;28;20190;-67
2023/01/02 04:38:07;;;;;;;14.83;10.07;;;8.20;99.90;;;;;;5031978;28;20202;-69
2023/01/02 04:40:36;;;;;;;13.73;9.50;;;8.10;99.90;;;;;;5031808;28;20190;-67
2023/01/02 04:43:05;;;;;;;12.20;8.97;;;8.20;99.90;;;;;;5045454;28;20232;-67
2023/01/02 04:45:31;;;;;;;11.90;8.23;;;8.10;99.90;;;;;;5051752;28;20225;-68
2023/01/02 04:47:58;;;;;;;12.00;8.83;;;8.10;99.90;;;;;;5051452;28;20213;-67
2023/01/02 04:50:26;;;;;;;11.47;8.33;;;8.10;99.90;;;;;;5051430;28;20205;-67
2023/01/02 04:52:53;;;;;;;20.00;13.00;;;8.10;99.90;;;;;;5038421;28;20206;-68
2023/01/02 04:55:20;;;;;;;14.87;9.90;;;8.10;99.90;;;;;;5031539;28;20217;-68
2023/01/02 04:57:47;;;;;;;11.17;8.53;;;8.10;99.90;;;;;;5031472;28;20206;-68
2023/01/02 05:00:14;;;;;;;11.87;8.27;;;8.10;99.90;;;;;;5031385;28;20216;-67
2023/01/02 05:02:41;;;;;;;16.50;8.90;;;8.10;99.90;;;;;;5039717;28;20583;-67
2023/01/02 05:05:09;;;;;;;12.97;8.33;;;8.10;99.90;;;;;;5051724;28;20557;-68
2023/01/02 05:07:38;;;;;;;11.57;8.13;;;8.10;99.90;;;;;;5051326;28;20208;-68
2023/01/02 05:10:05;;;;;;;11.63;8.30;;;8.10;99.90;;;;;;5050471;28;20206;-68
2023/01/02 05:12:34;;;;;;;13.40;8.40;;;8.10;99.90;;;;;;5051307;28;20208;-66
2023/01/02 05:15:01;;;;;;;16.07;9.50;;;8.10;99.90;;;;;;5051608;28;20691;-67
2023/01/02 05:17:28;;;;;;;13.37;9.00;;;8.00;99.90;;;;;;5051382;28;20209;-67
2023/01/02 05:19:55;;;;;;;14.83;8.53;;;8.00;99.90;;;;;;5041866;28;20544;-68
2023/01/02 05:25:08;;;;;;;12.97;8.87;;;8.00;99.90;;;;;;5031376;28;20178;-67
2023/01/02 05:27:35;;;;;;;13.10;9.93;;;8.00;99.90;;;;;;5030968;28;20217;-67
2023/01/02 05:30:02;;;;;;;12.07;8.63;;;7.90;99.90;;;;;;5039133;28;20205;-66
2023/01/02 05:32:28;;;;;;;14.47;9.20;;;7.90;99.90;;;;;;5034897;28;20617;-67
2023/01/02 05:34:55;;;;;;;14.30;9.50;;;7.90;99.90;;;;;;5031049;28;20226;-68
2023/01/02 05:37:22;;;;;;;13.50;9.77;;;7.90;99.90;;;;;;5031016;28;20212;-67
2023/01/02 05:39:48;;;;;;;14.40;10.30;;;7.90;99.90;;;;;;5039268;28;20205;-67
2023/01/02 05:42:17;;;;;;;13.07;9.30;;;7.90;99.90;;;;;;5055056;28;20205;-67
2023/01/02 05:44:44;;;;;;;15.80;10.10;;;7.90;99.90;;;;;;5054834;28;20678;-67
2023/01/02 05:47:10;;;;;;;15.07;9.80;;;7.90;99.90;;;;;;5054952;28;20228;-67
2023/01/02 05:49:37;;;;;;;13.97;9.80;;;7.80;99.90;;;;;;5052446;28;20212;-68
2023/01/02 05:52:04;;;;;;;14.03;9.83;;;7.80;99.90;;;;;;5054832;28;20534;-67
2023/01/02 05:54:31;;;;;;;13.03;9.40;;;7.80;99.90;;;;;;5054282;28;20225;-67
2023/01/02 05:56:57;;;;;;;14.43;10.10;;;7.80;99.90;;;;;;5054439;28;20235;-68
2023/01/02 05:59:25;;;;;;;14.13;9.40;;;7.80;99.90;;;;;;5052253;28;20210;-66
2023/01/02 06:01:52;;;;;;;15.03;9.63;;;7.80;99.90;;;;;;5034442;28;20217;-67
2023/01/02 06:04:19;;;;;;;14.70;10.30;;;7.70;99.90;;;;;;5032974;28;20233;-66
2023/01/02 06:06:46;;;;;;;13.50;9.93;;;7.70;99.90;;;;;;5033654;28;20209;-68
2023/01/02 06:09:14;;;;;;;15.03;10.03;;;7.70;99.90;;;;;;5052840;28;20209;-68
2023/01/02 06:11:41;;;;;;;13.67;10.30;;;7.70;99.90;;;;;;5054268;28;20561;-69
2023/01/02 06:14:09;;;;;;;13.33;9.97;;;7.70;99.90;;;;;;5051088;28;20240;-68
2023/01/02 06:16:37;;;;;;;13.57;9.27;;;7.70;99.90;;;;;;5053913;28;20209;-68
2023/01/02 06:19:04;;;;;;;13.47;8.97;;;7.70;99.90;;;;;;5054401;28;20569;-68
2023/01/02 06:21:32;;;;;;;15.23;10.67;;;7.70;99.90;;;;;;5043425;28;20210;-66
2023/01/02 06:23:59;;;;;;;13.27;9.37;;;7.70;99.90;;;;;;5034319;28;20202;-68
2023/01/02 06:26:28;;;;;;;13.77;9.47;;;7.70;99.90;;;;;;5033863;28;20209;-67
2023/01/02 06:28:56;;;;;;;12.83;9.10;;;7.70;99.90;;;;;;5035499;28;20198;-66
2023/01/02 06:31:24;;;;;;;13.43;9.90;;;7.70;99.90;;;;;;5033946;28;20561;-67
2023/01/02 06:33:55;;;;;;;12.93;9.70;;;7.70;99.90;;;;;;5035730;28;20226;-68
2023/01/02 06:36:22;;;;;;;14.43;10.23;;;7.70;99.90;;;;;;5047397;28;20659;-67
2023/01/02 06:38:49;;;;;;;13.07;9.87;;;7.70;99.90;;;;;;5051561;28;20206;-68
2023/01/02 06:41:17;;;;;;;14.10;9.77;;;7.70;99.90;;;;;;5039909;28;20197;-67
2023/01/02 06:43:46;;;;;;;13.90;9.83;;;7.70;99.90;;;;;;5036957;28;20206;-67
2023/01/02 06:46:14;;;;;;;17.77;11.47;;;7.70;99.90;;;;;;5033834;28;20225;-68
2023/01/02 06:48:41;;;;;;;15.27;10.40;;;7.70;99.90;;;;;;5033681;28;20206;-67
2023/01/02 06:51:10;;;;;;;14.00;9.77;;;7.70;99.90;;;;;;5033782;28;20210;-69
2023/01/02 06:53:39;;;;;;;15.73;10.93;;;7.70;99.90;;;;;;5033058;28;20202;-67
2023/01/02 06:56:07;;;;;;;14.20;10.03;;;7.70;99.90;;;;;;5033399;28;20294;-68
2023/01/02 06:58:35;;;;;;;17.50;10.43;;;7.70;99.90;;;;;;5033443;28;20213;-67
2023/01/02 07:01:03;;;;;;;16.27;10.00;;;7.80;99.90;;;;;;5042173;28;20551;-68
2023/01/02 07:03:30;;;;;;;16.23;10.43;;;7.80;99.90;;;;;;5053033;28;20310;-69
2023/01/02 07:06:01;;;;;;;14.63;9.83;;;7.80;99.90;;;;;;5053676;28;20687;-68
2023/01/02 07:08:29;;;;;;;15.43;10.30;;;7.90;99.90;;;;;;5053322;28;20547;-67
2023/01/02 07:11:07;;;;;;;14.87;10.00;;;7.90;99.90;;;;;;5036962;28;20205;-68
2023/01/02 07:13:34;;;;;;;18.90;11.23;;;7.90;99.90;;;;;;5033358;28;20599;-67
2023/01/02 07:16:03;;;;;;;17.07;11.13;;;8.00;99.90;;;;;;5033211;28;20284;-67
2023/01/02 07:18:29;;;;;;;15.63;11.40;;;8.00;99.90;;;;;;5033160;28;20816;-67
2023/01/02 07:20:56;;;;;;;17.43;10.77;;;8.00;99.90;;;;;;5033887;28;20297;-68
2023/01/02 07:23:23;;;;;;;17.47;11.23;;;8.10;99.90;;;;;;5032637;28;20206;-67
2023/01/02 07:25:53;;;;;;;17.37;11.30;;;8.10;99.90;;;;;;5033221;28;20209;-68
2023/01/02 07:28:20;;;;;;;15.67;11.53;;;8.10;99.90;;;;;;5032984;28;20198;-69
2023/01/02 07:30:47;;;;;;;15.33;10.93;;;8.20;99.90;;;;;;5032620;28;20206;-68
2023/01/02 07:33:13;;;;;;;16.63;11.50;;;8.20;99.90;;;;;;5032717;28;20206;-67
2023/01/02 07:35:40;;;;;;;18.93;11.40;;;8.20;99.90;;;;;;5032532;28;20234;-67
2023/01/02 07:38:07;;;;;;;17.67;12.17;;;8.20;99.90;;;;;;5032962;28;20206;-67
2023/01/02 07:40:34;;;;;;;18.60;12.87;;;8.30;99.90;;;;;;5043430;28;20213;-68
2023/01/02 07:43:02;;;;;;;21.17;12.93;;;8.30;99.90;;;;;;5052755;28;20209;-68
2023/01/02 07:45:29;;;;;;;20.60;12.73;;;8.30;99.90;;;;;;5052381;28;20221;-67
2023/01/02 07:47:56;;;;;;;21.47;12.70;;;8.30;99.90;;;;;;5052366;28;20205;-67
2023/01/02 07:50:22;;;;;;;18.00;11.40;;;8.30;99.90;;;;;;5049358;28;20284;-67
2023/01/02 07:52:49;;;;;;;17.53;11.63;;;8.30;99.90;;;;;;5052621;28;20208;-69
2023/01/02 07:55:16;;;;;;;15.73;10.80;;;8.40;99.90;;;;;;5052268;28;20226;-67
2023/01/02 07:57:43;;;;;;;17.50;12.13;;;8.40;99.90;;;;;;5052397;28;20205;-68
2023/01/02 08:00:12;;;;;;;17.97;12.33;;;8.50;99.90;;;;;;5043014;28;20233;-68
2023/01/02 08:02:39;;;;;;;19.17;12.40;;;8.50;99.90;;;;;;5031751;28;20238;-71
2023/01/02 08:05:06;;;;;;;16.13;11.90;;;8.50;99.90;;;;;;5032285;28;20193;-70
2023/01/02 08:07:33;;;;;;;18.90;11.83;;;8.50;99.90;;;;;;5040206;28;20703;-69
2023/01/02 08:10:00;;;;;;;15.53;11.00;;;8.60;99.90;;;;;;5041144;28;20206;-69
2023/01/02 08:12:27;;;;;;;15.93;10.83;;;8.60;99.90;;;;;;5034092;28;20212;-70
2023/01/02 08:14:54;;;;;;;16.60;11.53;;;8.60;99.90;;;;;;5048772;28;20224;-68
2023/01/02 08:17:22;;;;;;;19.90;12.43;;;8.70;99.90;;;;;;5051108;28;20205;-67
2023/01/02 08:19:49;;;;;;;17.90;12.03;;;8.70;99.90;;;;;;5030276;28;20209;-69
2023/01/02 08:22:16;;;;;;;17.77;12.60;;;8.70;99.90;;;;;;5038795;28;20205;-69
2023/01/02 08:24:43;;;;;;;21.83;13.13;;;8.80;99.90;;;;;;5031504;28;20240;-71
2023/01/02 08:27:09;;;;;;;16.57;11.43;;;8.80;99.90;;;;;;5031915;28;20209;-70
2023/01/02 08:29:36;;;;;;;16.10;11.23;;;8.80;99.90;;;;;;5031744;28;20210;-68
2023/01/02 08:32:03;;;;;;;15.80;11.57;;;8.90;99.90;;;;;;5042803;28;20205;-69
2023/01/02 08:34:31;;;;;;;16.10;11.17;;;8.90;99.90;;;;;;5051060;28;20221;-68
2023/01/02 08:36:58;;;;;;;16.03;10.97;;;8.90;99.90;;;;;;5051863;28;20654;-69
2023/01/02 08:39:24;;;;;;;16.67;11.10;;;9.00;99.90;;;;;;5051671;28;20540;-68
2023/01/02 08:41:51;;;;;;;16.20;11.30;;;9.00;99.90;;;;;;5038231;28;20616;-68
2023/01/02 08:44:18;;;;;;;16.90;11.70;;;9.00;99.90;;;;;;5035577;28;20216;-68
2023/01/02 08:46:45;;;;;;;14.77;10.67;;;9.10;99.90;;;;;;5051617;28;20254;-67
2023/01/02 08:49:12;;;;;;;15.30;10.37;;;9.10;99.90;;;;;;5051406;28;20208;-67
2023/01/02 08:51:40;;;;;;;14.70;10.30;;;9.10;99.90;;;;;;5051549;28;20201;-67
2023/01/02 08:54:06;;;;;;;16.63;10.40;;;9.20;99.90;;;;;;5041024;28;20219;-69
2023/01/02 08:56:34;;;;;;;15.20;10.80;;;9.20;99.90;;;;;;5031334;28;20234;-69
2023/01/02 08:59:04;;;;;;;13.87;10.47;;;9.20;99.90;;;;;;5031468;28;20212;-67
2023/01/02 09:01:32;;;;;;;15.27;9.83;;;9.30;99.90;;;;;;5031309;28;20218;-70
2023/01/02 09:03:59;;;;;;;13.70;9.30;;;9.30;99.90;;;;;;5030900;28;20741;-69
2023/01/02 09:06:28;;;;;;;13.17;10.23;;;9.40;99.90;;;;;;5031324;28;20206;-68
2023/01/02 09:08:58;;;;;;;14.37;9.77;;;9.40;99.90;;;;;;5037296;28;20233;-68
2023/01/02 09:11:27;;;;;;;13.97;9.53;;;9.50;99.90;;;;;;5031607;28;20653;-68
2023/01/02 09:13:55;;;;;;;14.67;8.97;;;9.50;99.90;;;;;;5031926;28;20202;-68
2023/01/02 09:16:22;;;;;;;16.43;10.03;;;9.50;99.90;;;;;;5053484;28;20225;-69
2023/01/02 09:18:49;;;;;;;18.07;10.90;;;9.50;99.90;;;;;;5055398;28;20205;-69
2023/01/02 09:21:17;;;;;;;20.17;13.57;;;9.60;99.90;;;;;;5037627;28;20213;-69
2023/01/02 09:23:44;;;;;;;14.60;10.10;;;9.60;99.90;;;;;;5050555;28;20198;-69
2023/01/02 09:26:13;;;;;;;13.17;8.73;;;9.60;99.90;;;;;;5054688;28;20697;-67
2023/01/02 09:28:40;;;;;;;11.50;9.13;;;9.70;99.90;;;;;;5049783;28;20206;-68
2023/01/02 09:31:07;;;;;;;14.57;9.57;;;9.70;99.90;;;;;;5062222;28;20243;-70
2023/01/02 09:33:35;;;;;;;13.03;9.10;;;9.70;99.90;;;;;;5051194;28;20208;-68
2023/01/02 09:36:02;;;;;;;13.67;9.43;;;9.70;99.90;;;;;;5048555;28;20710;-71
2023/01/02 09:38:29;;;;;;;14.43;9.70;;;9.70;99.90;;;;;;5044449;28;20205;-69
2023/01/02 09:40:58;;;;;;;15.83;9.60;;;9.70;99.90;;;;;;5047603;28;20236;-67
2023/01/02 09:43:33;;;;;;;15.90;9.93;;;9.70;99.90;;;;;;5051614;28;20202;-68
2023/01/02 09:46:01;;;;;;;11.30;8.53;;;9.70;99.90;;;;;;5044662;28;20634;-70
2023/01/02 09:48:33;;;;;;;14.13;8.80;;;9.80;99.90;;;;;;5053720;28;20583;-68
2023/01/02 09:51:01;;;;;;;14.90;9.00;;;9.80;99.90;;;;;;5054634;28;20889;-67
2023/01/02 09:53:28;;;;;;;15.07;9.80;;;9.80;99.90;;;;;;5051028;28;20653;-67
2023/01/02 09:56:02;;;;;;;13.37;9.03;;;9.90;99.90;;;;;;5041870;28;20228;-68
2023/01/02 09:58:37;;;;;;;13.57;9.10;;;9.90;99.90;;;;;;5040473;28;20202;-68
2023/01/02 10:01:06;;;;;;;12.47;8.80;;;9.90;99.90;;;;;;5031812;28;20216;-68
2023/01/02 10:03:40;;;;;;;13.23;9.43;;;9.90;99.90;;;;;;5048642;28;20230;-68
2023/01/02 10:06:11;;;;;;;14.23;9.37;;;9.90;99.90;;;;;;5074009;28;20212;-67
2023/01/02 10:08:47;;;;;;;15.50;9.57;;;10.00;99.90;;;;;;5073505;28;20667;-68
2023/01/02 10:11:41;;;;;;;12.80;9.17;;;10.00;99.90;;;;;;5063292;28;20197;-68
2023/01/02 10:14:16;;;;;;;13.23;9.03;;;10.00;99.90;;;;;;5048444;28;20209;-67
2023/01/02 10:16:46;;;;;;;13.17;8.77;;;10.10;99.90;;;;;;5053260;28;20232;-68
2023/01/02 10:19:19;;;;;;;13.43;9.90;;;10.10;99.90;;;;;;5054207;28;20251;-69
2023/01/02 10:21:48;;;;;;;14.27;9.40;;;10.20;99.90;;;;;;5051916;28;20233;-70
2023/01/02 10:24:18;;;;;;;14.10;9.43;;;10.20;99.90;;;;;;5040077;28;20212;-72
2023/01/02 10:26:49;;;;;;;14.37;9.77;;;10.20;99.90;;;;;;5041866;28;20197;-71
2023/01/02 10:29:25;;;;;;;13.20;9.37;;;10.30;99.90;;;;;;5037495;28;20209;-72
2023/01/02 10:31:55;;;;;;;16.53;9.73;;;10.30;99.90;;;;;;5040889;28;20201;-72
2023/01/02 10:34:24;;;;;;;13.17;9.07;;;10.40;99.90;;;;;;5050124;28;20234;-72
2023/01/02 10:36:51;;;;;;;12.90;9.30;;;10.40;99.90;;;;;;5035405;28;20229;-73
2023/01/02 10:39:21;;;;;;;16.30;10.63;;;10.40;99.90;;;;;;5042515;28;20206;-72
2023/01/02 10:41:51;;;;;;;18.00;11.37;;;10.50;99.90;;;;;;5055835;28;20190;-73
2023/01/02 10:44:26;;;;;;;14.63;10.13;;;10.50;99.90;;;;;;5058386;28;20196;-74
2023/01/02 10:46:53;;;;;;;16.00;10.60;;;10.50;99.90;;;;;;5056350;28;20192;-71
2023/01/02 10:49:21;;;;;;;14.50;10.50;;;10.60;99.90;;;;;;5052778;28;20206;-72
2023/01/02 10:51:52;;;;;;;15.00;10.63;;;10.60;99.90;;;;;;5032731;28;20719;-72
2023/01/02 10:54:19;;;;;;;14.03;9.93;;;10.70;99.90;;;;;;5046155;28;20604;-73
2023/01/02 10:56:50;;;;;;;14.90;10.43;;;10.70;99.90;;;;;;5035402;28;20217;-72
2023/01/02 10:59:23;;;;;;;14.37;10.30;;;10.70;99.90;;;;;;5033497;28;20194;-72
2023/01/02 11:01:52;;;;;;;15.73;10.47;;;10.80;99.90;;;;;;5033055;28;20198;-72
2023/01/02 11:04:22;;;;;;;13.97;10.20;;;10.80;99.90;;;;;;5041304;28;20647;-73
2023/01/02 11:06:53;;;;;;;14.00;9.93;;;10.80;99.90;;;;;;5042524;28;20635;-72
2023/01/02 11:09:22;;;;;;;13.60;9.47;;;10.90;99.90;;;;;;5053520;28;20196;-75
2023/01/02 11:11:51;;;;;;;12.37;9.23;;;10.90;99.90;;;;;;5036638;28;20202;-72
2023/01/02 11:14:23;;;;;;;14.63;9.67;;;10.90;99.90;;;;;;5033344;28;20202;-72
2023/01/02 11:16:51;;;;;;;14.60;9.67;;;10.90;99.90;;;;;;5032721;28;20214;-71
2023/01/02 11:19:20;;;;;;;13.27;9.17;;;10.90;99.90;;;;;;5032867;28;20284;-72
2023/01/02 11:21:47;;;;;;;13.67;9.50;;;11.00;99.90;;;;;;5032956;28;20298;-72
2023/01/02 11:24:18;;;;;;;17.17;10.63;;;11.00;99.90;;;;;;5050106;28;20210;-72
2023/01/02 11:26:47;;;;;;;14.23;9.60;;;11.10;99.90;;;;;;5052695;28;20188;-73
2023/01/02 11:29:18;;;;;;;15.00;9.80;;;11.10;99.90;;;;;;5053033;28;20663;-72
2023/01/02 11:31:50;;;;;;;13.77;10.10;;;11.10;99.90;;;;;;5052914;28;20190;-73
2023/01/02 11:34:22;;;;;;;14.50;9.60;;;11.20;99.90;;;;;;5041283;28;20627;-73
2023/01/02 11:37:03;;;;;;;14.00;9.67;;;11.20;99.90;;;;;;5036542;28;20233;-76
2023/01/02 11:39:33;;;;;;;14.77;9.33;;;11.20;99.90;;;;;;5042786;28;20198;-76
2023/01/02 11:44:59;;;;;;;15.80;10.67;;;11.30;99.90;;;;;;5032734;28;20186;-75
2023/01/02 11:47:42;;;;;;;15.73;9.97;;;11.30;99.90;;;;;;5032678;28;20194;-76
2023/01/02 11:50:13;;;;;;;13.73;9.77;;;11.40;99.90;;;;;;5033148;28;20194;-78
2023/01/02 11:52:46;;;;;;;13.27;9.33;;;11.40;99.90;;;;;;5036969;28;20205;-77
2023/01/02 11:55:24;;;;;;;14.70;9.50;;;11.40;99.90;;;;;;5053435;28;20540;-76
2023/01/02 11:57:56;;;;;;;13.90;9.33;;;11.50;99.90;;;;;;5052819;28;20531;-78
2023/01/02 12:00:28;;;;;;;13.83;8.90;;;11.50;99.90;;;;;;5052834;28;20200;-78
2023/01/02 12:03:03;;;;;;;14.67;9.43;;;11.50;99.90;;;;;;5052173;28;20244;-76
2023/01/02 12:05:41;;;;;;;13.73;9.30;;;11.50;99.90;;;;;;5029862;28;20194;-75
2023/01/02 12:08:15;;;;;;;13.70;9.33;;;11.60;99.90;;;;;;5028310;28;20217;-73
2023/01/02 12:10:52;;;;;;;14.83;10.47;;;11.60;99.90;;;;;;5036813;28;20509;-75
2023/01/02 12:13:42;;;;;;;13.43;9.90;;;11.60;99.90;;;;;;5038395;28;20665;-79
2023/01/02 12:16:33;;;;;;;13.33;9.60;;;11.60;99.90;;;;;;5034724;28;20218;-73
2023/01/02 12:19:18;;;;;;;13.80;9.63;;;11.60;99.90;;;;;;5032973;28;20234;-72
2023/01/02 12:21:53;;;;;;;13.90;10.17;;;11.60;99.90;;;;;;5040444;28;20201;-74
2023/01/02 12:24:54;;;;;;;13.50;9.47;;;11.60;99.90;;;;;;5041153;28;20196;-73
2023/01/02 12:27:29;;;;;;;14.50;10.37;;;11.60;99.90;;;;;;5038308;28;20194;-76
2023/01/02 12:30:07;;;;;;;16.43;10.60;;;11.60;99.90;;;;;;5046699;28;20200;-75
2023/01/02 12:33:14;;;;;;;18.37;11.17;;;11.60;99.90;;;;;;5035869;28;20197;-73
2023/01/02 12:35:53;;;;;;;16.60;10.23;;;11.60;99.90;;;;;;5051259;28;20650;-72
2023/01/02 12:38:27;;;;;;;14.07;9.93;;;11.60;99.90;;;;;;5052042;28;20196;-74
2023/01/02 12:41:05;;;;;;;14.57;10.07;;;11.70;99.90;;;;;;5051979;28;20235;-73
2023/01/02 12:43:50;;;;;;;13.53;10.20;;;11.60;99.90;;;;;;5052177;28;20197;-74
2023/01/02 12:46:30;;;;;;;14.63;10.23;;;11.60;99.90;;;;;;5051508;28;20192;-74
2023/01/02 12:49:16;;;;;;;16.03;11.43;;;11.60;99.90;;;;;;5051336;28;20204;-75
2023/01/02 12:51:55;;;;;;;15.33;10.07;;;11.70;99.90;;;;;;5051630;28;20197;-73
2023/01/02 12:54:46;;;;;;;15.70;10.37;;;11.70;99.90;;;;;;5051451;28;20553;-74
2023/01/02 12:57:22;;;;;;;16.10;10.40;;;11.70;99.90;;;;;;5051428;28;20220;-75
2023/01/02 13:00:14;;;;;;;14.37;9.70;;;11.70;99.90;;;;;;5051690;28;20193;-74
2023/01/02 13:02:57;;;;;;;14.30;9.83;;;11.70;99.90;;;;;;5048706;28;20236;-76
2023/01/02 13:05:31;;;;;;;16.23;10.10;;;11.70;99.90;;;;;;5037719;28;20681;-76
2023/01/02 13:08:05;;;;;;;14.37;9.77;;;11.70;99.90;;;;;;5031182;28;20206;-76
2023/01/02 13:10:33;;;;;;;15.40;9.87;;;11.70;99.90;;;;;;5031610;28;20230;-76
2023/01/02 13:13:01;;;;;;;12.03;8.90;;;11.70;99.90;;;;;;5031641;28;20220;-76
2023/01/02 13:15:34;;;;;;;14.73;9.97;;;11.70;99.90;;;;;;5032723;28;20588;-76
2023/01/02 13:18:07;;;;;;;14.23;9.33;;;11.70;99.90;;;;;;5046868;28;20582;-78